Weather History for Crookston, MN

Change the Weather History Date:

Sunday, August 4, 2013

  Actual Average Record
Temperature  
Mean Temperature 62 °F -  
Max Temperature 75 °F 77 °F 91 °F (2001)
Min Temperature 48 °F 55 °F 48 °F (2013)
Degree Days  
Heating Degree Days 4    
Growing Degree Days 12 (Base 50)    
Moisture  
Dew Point 49 °F    
Average Humidity 61    
Maximum Humidity 87    
Minimum Humidity 38    
Precipitation  
Precipitation 0.00 in - - ()
Sea Level Pressure  
Sea Level Pressure 30.12 in    
Wind  
Wind Speed 6 mph (SSE)    
Max Wind Speed 14 mph    
Max Gust Speed 18 mph    
Visibility 10 miles    
Events      
Averages and records for this station are not official NWS values.
T = Trace of Precipitation, MM = Missing Value Source: NWS Daily Summary

Daily Weather History Graph

Daily Weather History Graph

Search for Another Location

Airport:

Trip Planner

Search our weather history database for the weather conditions in past years. The results will help you decide how hot, cold, wet, or windy it might be!

Date:

Astronomy

Aug. 04, 2013 Rise Set
Actual Time 6:07 AM CDT 8:56 PM CDT
Civil Twilight 5:31 AM CDT 9:32 PM CDT
Nautical Twilight 4:45 AM CDT 10:17 PM CDT
Astronomical Twilight 3:51 AM CDT 11:11 PM CDT
Moon 4:07 AM CDT (8/4) 7:20 PM CDT (8/4)
Length of Visible Light 16h 00m
Length of Day
14h 49m
Waning Crescent, 4% of the Moon is Illuminated
Aug 4
Waning Crescent
Aug 6
New
Aug 14
First Quarter
Aug 20
Full
Aug 28
Last Quarter

Hourly Weather History & Observations

Time (CDT) Temp. Dew Point Humidity Pressure Visibility Wind Dir Wind Speed Gust Speed Precip Events Conditions
12:14 AM 53.6 °F 46.4 °F 77% 30.26 in 10.0 mi Calm Calm - N/A   Clear
12:35 AM 53.6 °F 46.4 °F 77% 30.26 in 10.0 mi SE 4.6 mph - N/A   Clear
12:54 AM 55.4 °F 46.4 °F 72% 30.26 in 10.0 mi ESE 3.5 mph - N/A   Clear
1:15 AM 53.6 °F 46.4 °F 77% 30.26 in 10.0 mi SE 3.5 mph - N/A   Clear
1:34 AM 55.4 °F 46.4 °F 72% 30.26 in 10.0 mi SE 3.5 mph - N/A   Clear
1:55 AM 53.6 °F 46.4 °F 77% 30.25 in 10.0 mi SSE 3.5 mph - N/A   Clear
2:15 AM 51.8 °F 46.4 °F 82% 30.25 in 10.0 mi ESE 3.5 mph - N/A   Clear
2:34 AM 53.6 °F 46.4 °F 77% 30.24 in 10.0 mi SE 3.5 mph - N/A   Clear
2:55 AM 51.8 °F 46.4 °F 82% 30.24 in 10.0 mi Calm Calm - N/A   Clear
3:14 AM 48.2 °F 44.6 °F 87% 30.23 in 10.0 mi Calm Calm - N/A   Clear
3:35 AM 50.0 °F 44.6 °F 82% 30.22 in 10.0 mi SE 4.6 mph - N/A   Clear
3:54 AM 51.8 °F 44.6 °F 76% 30.22 in 10.0 mi ESE 3.5 mph - N/A   Clear
4:15 AM 51.8 °F 46.4 °F 82% 30.22 in 10.0 mi SE 5.8 mph - N/A   Clear
4:35 AM 51.8 °F 46.4 °F 82% 30.21 in 10.0 mi SE 8.1 mph - N/A   Clear
4:54 AM 53.6 °F 46.4 °F 77% 30.21 in 10.0 mi ESE 5.8 mph - N/A   Clear
5:15 AM 51.8 °F 46.4 °F 82% 30.21 in 10.0 mi SE 5.8 mph - N/A   Clear
5:34 AM 53.6 °F 46.4 °F 77% 30.22 in 10.0 mi SE 5.8 mph - N/A   Clear
5:55 AM 51.8 °F 46.4 °F 82% 30.22 in 10.0 mi SE 4.6 mph - N/A   Clear
6:14 AM 48.2 °F 44.6 °F 87% 30.22 in 10.0 mi SE 5.8 mph - N/A   Clear
6:35 AM 50.0 °F 46.4 °F 87% 30.21 in 10.0 mi SE 6.9 mph - N/A   Clear
6:54 AM 53.6 °F 46.4 °F 77% 30.20 in 10.0 mi SE 5.8 mph - N/A   Clear
7:14 AM 53.6 °F 48.2 °F 82% 30.20 in 10.0 mi SE 5.8 mph - N/A   Clear
7:35 AM 55.4 °F 48.2 °F 77% 30.20 in 10.0 mi SE 4.6 mph - N/A   Clear
7:54 AM 57.2 °F 48.2 °F 72% 30.20 in 10.0 mi SE 6.9 mph - N/A   Clear
8:15 AM 57.2 °F 50.0 °F 77% 30.20 in 10.0 mi SSE 5.8 mph - N/A   Clear
8:34 AM 60.8 °F 51.8 °F 72% 30.20 in 10.0 mi SSE 5.8 mph - N/A   Clear
8:55 AM 60.8 °F 51.8 °F 72% 30.20 in 10.0 mi SSE 5.8 mph - N/A   Clear
9:14 AM 62.6 °F 51.8 °F 68% - 10.0 mi South 8.1 mph - N/A   Clear
9:35 AM 64.4 °F 50.0 °F 59% 30.20 in 10.0 mi South 10.4 mph - N/A   Clear
9:55 AM 66.2 °F 50.0 °F 56% 30.20 in 10.0 mi South 10.4 mph - N/A   Clear
10:14 AM 66.2 °F 50.0 °F 56% 30.20 in 10.0 mi South 10.4 mph - N/A   Clear
10:35 AM 66.2 °F 48.2 °F 52% 30.19 in 10.0 mi South 10.4 mph - N/A   Clear
10:54 AM 68.0 °F 48.2 °F 49% 30.20 in 10.0 mi South 11.5 mph - N/A   Clear
11:14 AM 68.0 °F 48.2 °F 49% 30.19 in 10.0 mi South 12.7 mph - N/A   Clear
11:35 AM 68.0 °F 48.2 °F 49% 30.19 in 10.0 mi South 9.2 mph - N/A   Clear
11:54 AM 66.2 °F 48.2 °F 52% 30.19 in 10.0 mi South 8.1 mph - N/A   Clear
12:14 PM 68.0 °F 50.0 °F 52% 30.18 in 10.0 mi SSW 10.4 mph - N/A   Clear
12:35 PM 69.8 °F 50.0 °F 49% 30.17 in 10.0 mi SSW 9.2 mph - N/A   Scattered Clouds
12:54 PM 69.8 °F 50.0 °F 49% 30.16 in 10.0 mi SW 9.2 mph - N/A   Mostly Cloudy
1:15 PM 68.0 °F 51.8 °F 56% 30.16 in 10.0 mi SW 8.1 mph - N/A   Overcast
1:34 PM 69.8 °F 51.8 °F 53% 30.15 in 10.0 mi SSW 12.7 mph - N/A   Mostly Cloudy
1:55 PM 69.8 °F 48.2 °F 46% 30.14 in 10.0 mi South 8.1 mph - N/A   Scattered Clouds
2:14 PM 71.6 °F 48.2 °F 43% 30.13 in 10.0 mi South 8.1 mph - N/A   Scattered Clouds
2:35 PM 71.6 °F 46.4 °F 41% 30.13 in 10.0 mi South 10.4 mph 17.3 mph N/A   Mostly Cloudy
2:54 PM 71.6 °F 48.2 °F 43% 30.12 in 10.0 mi SSW 6.9 mph - N/A   Overcast
3:15 PM 71.6 °F 48.2 °F 43% 30.10 in 10.0 mi SSW 4.6 mph - N/A   Mostly Cloudy
3:34 PM 73.4 °F 50.0 °F 44% 30.09 in 10.0 mi South 10.4 mph - N/A   Mostly Cloudy
3:54 PM 73.4 °F 50.0 °F 44% 30.08 in 10.0 mi SE 8.1 mph - N/A   Mostly Cloudy
4:14 PM 75.2 °F 50.0 °F 41% 30.07 in 10.0 mi SE 9.2 mph 16.1 mph N/A   Scattered Clouds
4:35 PM 75.2 °F 48.2 °F 38% 30.06 in 10.0 mi South 10.4 mph - N/A   Scattered Clouds
4:54 PM 75.2 °F 48.2 °F 38% 30.04 in 10.0 mi South 8.1 mph - N/A   Mostly Cloudy
5:14 PM 75.2 °F 50.0 °F 41% 30.03 in 10.0 mi South 10.4 mph - N/A   Scattered Clouds
5:35 PM 75.2 °F 50.0 °F 41% 30.02 in 10.0 mi SSE 13.8 mph 18.4 mph N/A   Scattered Clouds
5:54 PM 73.4 °F 50.0 °F 44% 30.01 in 10.0 mi SSE 10.4 mph 18.4 mph N/A   Mostly Cloudy
6:15 PM 73.4 °F 48.2 °F 41% 30.01 in 10.0 mi South 10.4 mph - N/A   Mostly Cloudy
6:34 PM 73.4 °F 48.2 °F 41% 30.00 in 10.0 mi South 10.4 mph - N/A   Overcast
6:55 PM 73.4 °F 51.8 °F 47% 29.99 in 10.0 mi South 12.7 mph 17.3 mph N/A   Overcast
7:14 PM 73.4 °F 51.8 °F 47% 30.00 in 10.0 mi South 10.4 mph - N/A   Overcast
7:34 PM 71.6 °F 51.8 °F 50% 29.98 in 10.0 mi South 12.7 mph - N/A   Overcast
7:55 PM 71.6 °F 51.8 °F 50% 29.97 in 10.0 mi South 10.4 mph - N/A   Overcast
8:14 PM 71.6 °F 51.8 °F 50% 29.95 in 10.0 mi South 9.2 mph - N/A   Overcast
8:35 PM 69.8 °F 53.6 °F 56% 29.96 in 10.0 mi South 8.1 mph - N/A   Overcast
8:54 PM 69.8 °F 53.6 °F 56% 29.97 in 10.0 mi SSW 6.9 mph - N/A   Overcast
9:14 PM 69.8 °F 53.6 °F 56% 29.96 in 10.0 mi South 6.9 mph - N/A   Overcast
9:35 PM 69.8 °F 53.6 °F 56% 29.96 in 10.0 mi South 6.9 mph - N/A   Overcast
9:54 PM 69.8 °F 53.6 °F 56% 29.96 in 10.0 mi South 8.1 mph - N/A   Overcast
10:15 PM 68.0 °F 53.6 °F 60% 29.96 in 10.0 mi SSW 11.5 mph - N/A   Overcast
10:34 PM 68.0 °F 55.4 °F 64% 29.95 in 10.0 mi SSW 11.5 mph - N/A   Overcast
10:55 PM 68.0 °F 53.6 °F 60% 29.94 in 10.0 mi SSW 11.5 mph - N/A   Overcast
11:15 PM 66.2 °F 55.4 °F 68% 29.93 in 10.0 mi SSW 8.1 mph - N/A   Mostly Cloudy
11:34 PM 66.2 °F 55.4 °F 68% 29.92 in 10.0 mi South 8.1 mph - N/A   Scattered Clouds
11:55 PM 64.4 °F 55.4 °F 73% 29.92 in 10.0 mi South 4.6 mph - N/A   Scattered Clouds